Time;durP1;ratioP1;P1;durP2;ratioP2;P2;SDS_P1;SDS_P2;PMS_P1;PMS_P2;Temp;Humidity;BMP_temperature;BMP_pressure;BME280_temperature;BME280_humidity;BME280_pressure;Samples;Min_cycle;Max_cycle;Signal;HPM_P1;HPM_P2
2022/09/06 00:01:50;;;;;;;0.50;0.50;;;22.00;59.90;;;;;;6217367;28;20026;-72
2022/09/06 00:04:50;;;;;;;0.70;0.70;;;22.00;59.90;;;;;;6217589;28;20262;-72
2022/09/06 00:07:51;;;;;;;0.50;0.50;;;22.00;59.90;;;;;;6217341;28;20049;-72
2022/09/06 00:11:00;;;;;;;0.88;0.80;;;22.00;59.90;;;;;;6217004;28;20073;-72
2022/09/06 00:14:01;;;;;;;0.70;0.60;;;22.00;59.90;;;;;;6193106;28;20037;-72
2022/09/06 00:17:01;;;;;;;0.60;0.60;;;22.00;59.90;;;;;;6200893;28;20493;-72
2022/09/06 00:20:04;;;;;;;0.77;0.68;;;22.00;59.90;;;;;;6217213;28;20030;-72
2022/09/06 00:23:05;;;;;;;0.63;0.63;;;22.00;59.90;;;;;;6217082;28;20029;-72
2022/09/06 00:26:05;;;;;;;0.52;0.50;;;22.00;59.90;;;;;;6217395;28;20034;-73
2022/09/06 00:29:06;;;;;;;0.60;0.57;;;22.00;59.90;;;;;;6216554;28;20025;-73
2022/09/06 00:32:07;;;;;;;0.80;0.68;;;22.00;59.90;;;;;;6216815;28;20038;-72
2022/09/06 00:35:08;;;;;;;0.50;0.50;;;22.00;59.90;;;;;;6216858;28;20034;-71
2022/09/06 00:38:09;;;;;;;0.50;0.50;;;22.00;59.90;;;;;;6216809;28;20033;-72
2022/09/06 00:41:12;;;;;;;0.40;0.40;;;22.00;59.90;;;;;;6215703;28;20072;-72
2022/09/06 00:44:13;;;;;;;1.23;0.60;;;22.00;59.90;;;;;;6216239;28;20057;-72
2022/09/06 00:47:14;;;;;;;0.50;0.40;;;22.00;60.00;;;;;;6216585;28;20029;-72
2022/09/06 00:50:17;;;;;;;0.60;0.47;;;22.00;59.90;;;;;;6216991;28;20025;-72
2022/09/06 00:53:19;;;;;;;0.85;0.65;;;22.00;59.90;;;;;;6215957;28;20037;-72
2022/09/06 00:56:20;;;;;;;0.50;0.50;;;22.00;59.90;;;;;;6216501;28;20026;-72
2022/09/06 00:59:24;;;;;;;0.60;0.55;;;22.00;59.90;;;;;;6216457;28;20271;-72
2022/09/06 01:02:25;;;;;;;0.47;0.47;;;22.00;60.70;;;;;;6216075;28;20030;-72
2022/09/06 01:05:38;;;;;;;2.63;0.73;;;22.00;59.90;;;;;;6216298;28;20117;-72
2022/09/06 01:08:56;;;;;;;0.73;0.60;;;22.00;59.90;;;;;;6216289;28;20025;-73
2022/09/06 01:12:16;;;;;;;0.50;0.50;;;22.00;59.90;;;;;;6216843;28;20037;-72
2022/09/06 01:15:39;;;;;;;1.05;0.70;;;22.00;60.00;;;;;;6216566;28;20059;-72
2022/09/06 01:19:30;;;;;;;0.63;0.57;;;22.00;60.00;;;;;;6245683;28;20041;-72
2022/09/06 01:22:58;;;;;;;3.42;0.60;;;22.00;59.90;;;;;;6230603;28;20036;-72
2022/09/06 01:26:07;;;;;;;0.60;0.50;;;22.00;59.90;;;;;;6215729;28;20500;-71
2022/09/06 01:29:33;;;;;;;0.52;0.43;;;22.00;60.00;;;;;;6214916;28;20057;-72
2022/09/06 01:32:34;;;;;;;0.50;0.50;;;22.00;59.90;;;;;;6225323;28;20050;-72
2022/09/06 01:35:53;;;;;;;0.68;0.57;;;22.00;59.90;;;;;;6215698;28;20492;-72
2022/09/06 01:38:54;;;;;;;1.48;0.82;;;22.00;59.90;;;;;;6215327;28;20018;-72
2022/09/06 01:41:59;;;;;;;0.73;0.60;;;22.00;59.90;;;;;;6215058;28;20049;-72
2022/09/06 01:45:09;;;;;;;0.40;0.40;;;22.00;59.90;;;;;;6215416;28;20026;-72
2022/09/06 01:48:20;;;;;;;0.60;0.50;;;22.00;59.90;;;;;;6215464;28;20026;-72
2022/09/06 01:51:50;;;;;;;0.60;0.60;;;22.00;59.90;;;;;;6215250;28;20122;-72
2022/09/06 01:55:07;;;;;;;0.70;0.63;;;22.00;59.90;;;;;;6215190;28;20018;-71
2022/09/06 01:58:35;;;;;;;0.70;0.60;;;22.00;59.90;;;;;;6215941;28;20014;-72
2022/09/06 02:02:06;;;;;;;0.60;0.57;;;22.00;60.00;;;;;;6217137;28;20085;-71
2022/09/06 02:05:31;;;;;;;0.55;0.52;;;22.00;60.00;;;;;;6216448;28;20404;-73
2022/09/06 02:08:43;;;;;;;0.40;0.40;;;22.00;60.00;;;;;;6216316;28;20101;-72
2022/09/06 02:11:49;;;;;;;1.45;0.70;;;22.00;60.00;;;;;;6216652;28;20030;-72
2022/09/06 02:15:17;;;;;;;0.40;0.40;;;22.00;59.90;;;;;;6214833;28;20515;-71
2022/09/06 02:18:23;;;;;;;0.30;0.30;;;22.00;59.90;;;;;;6223339;28;20079;-72
2022/09/06 02:21:35;;;;;;;0.40;0.40;;;22.00;60.00;;;;;;6214959;28;20014;-72
2022/09/06 02:24:39;;;;;;;0.75;0.50;;;22.00;60.00;;;;;;6221298;28;20468;-72
2022/09/06 02:27:40;;;;;;;0.40;0.40;;;22.00;60.00;;;;;;6214596;28;20468;-72
2022/09/06 02:30:48;;;;;;;0.43;0.40;;;22.00;60.00;;;;;;6215930;28;20030;-72
2022/09/06 02:33:50;;;;;;;0.50;0.50;;;22.00;59.90;;;;;;6214744;28;20037;-71
2022/09/06 02:36:51;;;;;;;0.77;0.60;;;22.00;60.00;;;;;;6220704;28;20026;-72
2022/09/06 02:39:54;;;;;;;0.60;0.52;;;22.00;60.20;;;;;;6214635;28;20110;-72
2022/09/06 02:42:55;;;;;;;0.47;0.40;;;22.00;60.00;;;;;;6221660;28;20060;-71
2022/09/06 02:45:55;;;;;;;0.63;0.52;;;22.00;60.00;;;;;;6214695;28;20022;-71
2022/09/06 02:48:56;;;;;;;0.50;0.50;;;22.00;59.90;;;;;;6214967;28;20018;-72
2022/09/06 02:51:57;;;;;;;0.65;0.60;;;22.00;60.00;;;;;;6214697;28;20036;-72
2022/09/06 02:54:58;;;;;;;0.57;0.52;;;22.00;60.00;;;;;;6214905;28;20034;-72
2022/09/06 02:57:58;;;;;;;0.50;0.40;;;22.00;60.00;;;;;;6214772;28;20107;-72
2022/09/06 03:00:59;;;;;;;0.47;0.47;;;22.00;60.00;;;;;;6214674;28;20030;-73
2022/09/06 03:04:01;;;;;;;0.50;0.43;;;22.00;60.00;;;;;;6212604;28;20022;-72
2022/09/06 03:07:01;;;;;;;0.50;0.50;;;22.00;60.00;;;;;;6215064;28;20084;-72
2022/09/06 03:10:02;;;;;;;0.57;0.57;;;22.00;60.00;;;;;;6214529;28;20025;-72
2022/09/06 03:13:03;;;;;;;0.40;0.40;;;22.00;60.00;;;;;;6214734;28;20492;-72
2022/09/06 03:16:03;;;;;;;0.38;0.38;;;22.00;60.00;;;;;;6214746;28;20026;-72
2022/09/06 03:19:04;;;;;;;0.45;0.45;;;22.00;60.00;;;;;;6214990;28;20060;-72
2022/09/06 03:22:05;;;;;;;0.50;0.50;;;22.00;59.90;;;;;;6215653;28;20507;-72
2022/09/06 03:25:07;;;;;;;0.50;0.50;;;22.00;59.90;;;;;;6214006;28;20022;-71
2022/09/06 03:28:08;;;;;;;0.70;0.50;;;22.00;60.00;;;;;;6214095;28;20029;-71
2022/09/06 03:31:09;;;;;;;0.43;0.43;;;22.00;60.00;;;;;;6214068;28;20070;-72
2022/09/06 03:34:09;;;;;;;0.32;0.30;;;22.00;60.00;;;;;;6213284;28;20026;-72
2022/09/06 03:37:10;;;;;;;0.55;0.50;;;22.00;60.00;;;;;;6212586;28;20109;-72
2022/09/06 03:40:11;;;;;;;0.50;0.50;;;22.00;60.00;;;;;;6213594;28;20018;-72
2022/09/06 03:43:12;;;;;;;0.70;0.50;;;22.00;60.00;;;;;;6213415;28;20056;-72
2022/09/06 03:46:12;;;;;;;1.33;0.40;;;22.00;59.90;;;;;;6213333;28;20293;-72
2022/09/06 03:49:13;;;;;;;0.40;0.40;;;22.00;60.00;;;;;;6213234;28;20090;-71
2022/09/06 03:52:14;;;;;;;0.40;0.40;;;22.00;60.00;;;;;;6215823;28;20045;-73
2022/09/06 03:55:15;;;;;;;0.50;0.50;;;22.00;59.90;;;;;;6217229;28;20353;-71
2022/09/06 03:58:17;;;;;;;0.85;0.50;;;22.00;60.00;;;;;;6217582;28;20022;-71
2022/09/06 04:01:18;;;;;;;0.60;0.60;;;22.00;60.00;;;;;;6217897;28;20032;-72
2022/09/06 04:04:18;;;;;;;0.93;0.70;;;22.00;60.00;;;;;;6218453;28;20483;-72
2022/09/06 04:07:19;;;;;;;0.50;0.50;;;22.00;60.00;;;;;;6217205;28;20034;-71
2022/09/06 04:10:20;;;;;;;0.57;0.43;;;22.00;60.00;;;;;;6217336;28;20388;-72
2022/09/06 04:13:22;;;;;;;0.40;0.40;;;22.00;60.00;;;;;;6217069;28;20129;-72
2022/09/06 04:16:22;;;;;;;0.50;0.50;;;22.00;60.00;;;;;;6216485;28;20056;-72
2022/09/06 04:19:23;;;;;;;0.60;0.50;;;22.00;60.00;;;;;;6218526;28;20026;-71
2022/09/06 04:22:23;;;;;;;0.80;0.30;;;22.00;60.00;;;;;;6218769;28;20018;-71
2022/09/06 04:25:24;;;;;;;0.52;0.47;;;22.00;60.00;;;;;;6217894;28;20038;-72
2022/09/06 04:28:25;;;;;;;0.50;0.50;;;22.00;60.00;;;;;;6218956;28;20033;-72
2022/09/06 04:31:26;;;;;;;0.52;0.40;;;22.00;59.90;;;;;;6218099;28;20238;-72
2022/09/06 04:34:27;;;;;;;0.40;0.40;;;22.00;60.00;;;;;;6218502;28;20126;-72
2022/09/06 04:37:27;;;;;;;0.38;0.35;;;22.00;60.00;;;;;;6218176;28;20070;-72
2022/09/06 04:40:28;;;;;;;0.88;0.57;;;22.00;60.00;;;;;;6217799;28;20395;-71
2022/09/06 04:43:29;;;;;;;0.50;0.50;;;22.00;59.90;;;;;;6217944;28;20049;-73
2022/09/06 04:46:30;;;;;;;0.75;0.52;;;22.00;60.00;;;;;;6217980;28;20071;-71
2022/09/06 04:49:30;;;;;;;0.35;0.30;;;22.00;60.00;;;;;;6218129;28;20033;-72
2022/09/06 04:52:31;;;;;;;0.88;0.50;;;22.00;60.00;;;;;;6217932;28;20045;-72
2022/09/06 04:55:32;;;;;;;0.60;0.50;;;22.00;60.00;;;;;;6217953;28;20026;-71
2022/09/06 04:58:33;;;;;;;0.70;0.60;;;22.00;59.90;;;;;;6217981;28;20396;-71
2022/09/06 05:01:34;;;;;;;0.57;0.40;;;22.00;60.00;;;;;;6209829;28;20026;-71
2022/09/06 05:04:34;;;;;;;0.40;0.40;;;22.00;60.00;;;;;;6190933;28;20441;-72
2022/09/06 05:07:35;;;;;;;0.60;0.60;;;22.00;59.90;;;;;;6206116;28;20028;-72
2022/09/06 05:10:36;;;;;;;0.55;0.50;;;22.00;59.90;;;;;;6216555;28;20029;-71
2022/09/06 05:13:37;;;;;;;0.40;0.40;;;22.00;59.90;;;;;;6215952;28;20386;-71
2022/09/06 05:16:38;;;;;;;0.50;0.50;;;22.00;60.00;;;;;;6215907;28;20022;-72
2022/09/06 05:19:39;;;;;;;0.38;0.38;;;22.00;60.00;;;;;;6215621;28;20080;-71
2022/09/06 05:22:40;;;;;;;0.45;0.40;;;22.00;59.90;;;;;;6216196;28;20029;-72
2022/09/06 05:25:41;;;;;;;0.55;0.50;;;22.00;60.00;;;;;;6215466;28;20480;-71
2022/09/06 05:28:41;;;;;;;0.60;0.57;;;22.00;60.00;;;;;;6215940;28;20032;-72
2022/09/06 05:31:42;;;;;;;0.50;0.50;;;22.00;59.90;;;;;;6215508;28;20497;-72
2022/09/06 05:34:43;;;;;;;0.57;0.52;;;22.00;59.90;;;;;;6221849;28;20035;-72
2022/09/06 05:37:43;;;;;;;0.35;0.35;;;22.00;59.90;;;;;;6215789;28;20535;-72
2022/09/06 05:40:44;;;;;;;0.52;0.50;;;22.00;60.00;;;;;;6216820;28;20026;-71
2022/09/06 05:43:45;;;;;;;0.40;0.40;;;22.00;59.90;;;;;;6215526;28;20084;-72
2022/09/06 05:46:45;;;;;;;0.47;0.45;;;22.00;59.90;;;;;;6216849;28;20022;-71
2022/09/06 05:49:46;;;;;;;0.55;0.40;;;22.00;59.90;;;;;;6216938;28;20033;-72
2022/09/06 05:52:47;;;;;;;0.50;0.40;;;22.00;60.00;;;;;;6216714;28;20098;-71
2022/09/06 05:55:47;;;;;;;0.60;0.40;;;22.00;59.90;;;;;;6217158;28;20487;-72
2022/09/06 05:58:48;;;;;;;0.68;0.40;;;22.00;59.90;;;;;;6216626;28;20034;-71
2022/09/06 06:01:51;;;;;;;0.93;0.40;;;22.00;60.00;;;;;;6206280;28;20049;-72
2022/09/06 06:04:53;;;;;;;0.55;0.50;;;22.00;59.90;;;;;;6218785;28;20018;-72
2022/09/06 06:07:54;;;;;;;0.40;0.40;;;22.00;59.90;;;;;;6218831;28;20044;-72
2022/09/06 06:11:01;;;;;;;0.68;0.43;;;22.00;59.90;;;;;;6218440;28;20033;-71
2022/09/06 06:14:04;;;;;;;0.40;0.40;;;22.00;59.90;;;;;;6218133;28;20488;-72
2022/09/06 06:17:05;;;;;;;0.60;0.50;;;22.00;59.90;;;;;;6218439;28;20041;-72
2022/09/06 06:20:06;;;;;;;0.40;0.40;;;22.00;59.90;;;;;;6224774;28;20026;-72
2022/09/06 06:23:07;;;;;;;0.50;0.40;;;22.00;59.90;;;;;;6218275;28;20037;-72
2022/09/06 06:26:08;;;;;;;0.40;0.40;;;22.00;59.90;;;;;;6217744;28;20390;-71
2022/09/06 06:29:09;;;;;;;0.43;0.40;;;22.00;59.90;;;;;;6216351;28;20435;-72
2022/09/06 06:32:10;;;;;;;0.50;0.40;;;22.00;59.90;;;;;;6217984;28;20029;-72
2022/09/06 06:35:10;;;;;;;0.73;0.50;;;22.00;59.90;;;;;;6217828;28;20037;-72
2022/09/06 06:38:11;;;;;;;0.52;0.50;;;22.00;59.90;;;;;;6218449;28;20496;-72
2022/09/06 06:41:15;;;;;;;0.50;0.50;;;22.00;59.90;;;;;;6217834;28;20061;-72
2022/09/06 06:44:15;;;;;;;1.13;0.40;;;22.00;59.90;;;;;;6217851;28;20492;-72
2022/09/06 06:47:16;;;;;;;0.65;0.40;;;22.00;59.90;;;;;;6217849;28;20029;-72
2022/09/06 06:50:16;;;;;;;0.32;0.32;;;22.00;59.90;;;;;;6217033;28;20488;-71
2022/09/06 06:53:18;;;;;;;0.40;0.40;;;22.00;59.90;;;;;;6217908;28;20040;-71
2022/09/06 06:56:27;;;;;;;0.40;0.40;;;22.00;59.90;;;;;;6217908;28;20033;-71
2022/09/06 06:59:28;;;;;;;0.40;0.40;;;22.00;59.90;;;;;;6222970;28;20030;-72
2022/09/06 07:02:28;;;;;;;0.80;0.43;;;22.00;59.90;;;;;;6218611;28;20037;-72
2022/09/06 07:05:29;;;;;;;0.47;0.47;;;22.00;59.90;;;;;;6218037;28;20022;-71
2022/09/06 07:08:30;;;;;;;0.20;0.20;;;22.00;59.90;;;;;;6217797;28;20097;-72
2022/09/06 07:11:30;;;;;;;0.38;0.38;;;22.00;59.90;;;;;;6216466;28;20369;-71
2022/09/06 07:14:31;;;;;;;0.90;0.50;;;22.00;59.90;;;;;;6217217;28;20042;-72
2022/09/06 07:17:31;;;;;;;0.40;0.40;;;22.00;59.90;;;;;;6217714;28;20014;-72
2022/09/06 07:20:32;;;;;;;1.20;0.50;;;22.00;59.90;;;;;;6217421;28;20057;-72
2022/09/06 07:23:33;;;;;;;0.68;0.40;;;22.00;59.90;;;;;;6217168;28;20082;-72
2022/09/06 07:26:34;;;;;;;0.65;0.40;;;22.00;59.90;;;;;;6218801;28;20064;-73
2022/09/06 07:29:35;;;;;;;0.40;0.40;;;22.00;59.90;;;;;;6221292;28;20468;-71
2022/09/06 07:32:36;;;;;;;0.40;0.40;;;22.00;59.90;;;;;;6221714;28;20044;-72
2022/09/06 07:35:36;;;;;;;1.20;0.40;;;22.00;59.90;;;;;;6221497;28;20022;-72
2022/09/06 07:38:37;;;;;;;0.73;0.40;;;22.00;59.90;;;;;;6221557;28;20033;-72
2022/09/06 07:41:38;;;;;;;0.70;0.40;;;22.00;59.90;;;;;;6221358;28;20418;-72
2022/09/06 07:44:38;;;;;;;0.45;0.45;;;22.00;59.80;;;;;;6221269;28;20040;-71
2022/09/06 07:47:39;;;;;;;0.38;0.32;;;22.00;59.80;;;;;;6221609;28;20506;-71
2022/09/06 07:50:40;;;;;;;0.40;0.40;;;22.00;59.80;;;;;;6221352;28;20033;-72
2022/09/06 07:53:42;;;;;;;0.73;0.60;;;22.00;59.80;;;;;;6220798;28;20075;-71
2022/09/06 07:56:43;;;;;;;0.55;0.50;;;22.00;59.80;;;;;;6221024;28;20025;-71
2022/09/06 07:59:43;;;;;;;0.77;0.50;;;22.00;59.80;;;;;;6221183;28;20369;-71
2022/09/06 08:02:44;;;;;;;0.57;0.50;;;22.00;59.80;;;;;;6220127;28;20030;-72
2022/09/06 08:05:48;;;;;;;1.15;0.52;;;22.00;59.80;;;;;;6220632;28;20502;-71
2022/09/06 08:08:49;;;;;;;0.90;0.40;;;22.00;59.80;;;;;;6220186;28;20455;-71
2022/09/06 08:11:51;;;;;;;0.30;0.30;;;22.00;59.80;;;;;;6220228;28;20026;-72
2022/09/06 08:14:52;;;;;;;0.90;0.60;;;22.00;59.80;;;;;;6219457;28;20542;-71
2022/09/06 08:17:52;;;;;;;1.02;0.50;;;22.00;59.80;;;;;;6220431;28;20026;-72
2022/09/06 08:20:53;;;;;;;0.70;0.50;;;22.00;59.80;;;;;;6220363;28;20068;-73
2022/09/06 08:23:59;;;;;;;0.95;0.50;;;22.00;59.80;;;;;;6219812;28;20026;-72
2022/09/06 08:27:01;;;;;;;1.17;0.50;;;22.00;59.80;;;;;;6220468;28;20073;-72
2022/09/06 08:30:02;;;;;;;0.40;0.40;;;22.00;59.80;;;;;;6220500;28;20022;-72
2022/09/06 08:33:03;;;;;;;0.88;0.30;;;22.00;59.80;;;;;;6220633;28;20508;-71
2022/09/06 08:36:04;;;;;;;0.98;0.50;;;22.00;59.80;;;;;;6220449;28;20024;-71
2022/09/06 08:39:10;;;;;;;0.65;0.50;;;22.00;59.80;;;;;;6219869;28;20057;-73
2022/09/06 08:42:11;;;;;;;0.60;0.40;;;22.00;59.80;;;;;;6220130;28;20046;-72
2022/09/06 08:45:17;;;;;;;0.40;0.40;;;22.00;59.80;;;;;;6220297;28;20018;-72
2022/09/06 08:48:18;;;;;;;1.77;0.60;;;22.00;59.80;;;;;;6220472;28;20113;-71
2022/09/06 08:51:33;;;;;;;0.80;0.60;;;22.00;59.80;;;;;;6220350;28;20034;-72
2022/09/06 08:54:55;;;;;;;1.05;0.75;;;22.00;59.80;;;;;;6219902;28;20029;-72
2022/09/06 08:58:37;;;;;;;0.43;0.40;;;22.00;59.80;;;;;;6200254;28;20034;-72
2022/09/06 09:01:45;;;;;;;0.35;0.35;;;22.00;59.80;;;;;;6246645;28;20022;-72
2022/09/06 09:04:53;;;;;;;0.73;0.45;;;22.00;59.70;;;;;;6219957;28;20026;-72
2022/09/06 09:08:04;;;;;;;0.52;0.50;;;22.00;59.80;;;;;;6195435;28;20026;-71
2022/09/06 09:11:09;;;;;;;0.40;0.30;;;22.00;59.80;;;;;;6205500;28;20022;-72
2022/09/06 09:14:30;;;;;;;0.68;0.57;;;22.00;59.80;;;;;;6219775;28;20037;-72
2022/09/06 09:17:31;;;;;;;0.57;0.30;;;22.00;59.80;;;;;;6219490;28;20026;-72
2022/09/06 09:20:32;;;;;;;0.88;0.50;;;22.00;59.80;;;;;;6219584;28;20034;-72
2022/09/06 09:23:32;;;;;;;0.70;0.50;;;22.00;59.80;;;;;;6219847;28;20032;-72
2022/09/06 09:26:40;;;;;;;0.75;0.40;;;22.00;59.80;;;;;;6219326;28;20036;-71
2022/09/06 09:29:52;;;;;;;0.45;0.40;;;22.00;59.80;;;;;;6219825;28;20026;-71
2022/09/06 09:32:53;;;;;;;0.70;0.50;;;22.00;59.80;;;;;;6218719;28;20068;-71
2022/09/06 09:35:57;;;;;;;0.60;0.55;;;22.00;59.80;;;;;;6219454;28;20407;-72
2022/09/06 09:38:58;;;;;;;0.65;0.40;;;22.00;59.80;;;;;;6219261;28;20377;-71
2022/09/06 09:41:59;;;;;;;0.40;0.40;;;22.00;59.80;;;;;;6218952;28;20046;-73
2022/09/06 09:45:01;;;;;;;0.45;0.40;;;22.00;59.80;;;;;;6219349;28;20491;-72
2022/09/06 09:48:34;;;;;;;0.40;0.40;;;22.00;59.80;;;;;;6218557;28;20022;-72
2022/09/06 09:51:40;;;;;;;0.40;0.40;;;22.00;59.80;;;;;;6251729;28;20050;-72
2022/09/06 09:54:45;;;;;;;0.60;0.50;;;22.00;59.70;;;;;;6218576;28;20030;-72
2022/09/06 09:57:47;;;;;;;0.50;0.50;;;22.00;59.70;;;;;;6218685;28;20068;-72
2022/09/06 10:01:07;;;;;;;0.55;0.40;;;22.00;59.80;;;;;;6226631;28;20033;-73
2022/09/06 10:04:15;;;;;;;0.55;0.50;;;22.00;59.80;;;;;;6218645;28;20034;-72
2022/09/06 10:07:22;;;;;;;0.88;0.57;;;22.00;59.80;;;;;;6218896;28;20022;-72
2022/09/06 10:10:25;;;;;;;0.45;0.43;;;22.00;59.80;;;;;;6219338;28;20030;-72
2022/09/06 10:13:28;;;;;;;0.73;0.38;;;22.00;59.80;;;;;;6218220;28;20124;-72
2022/09/06 10:16:44;;;;;;;0.43;0.30;;;22.00;59.80;;;;;;6218808;28;20380;-72
2022/09/06 10:19:46;;;;;;;0.50;0.50;;;22.00;59.80;;;;;;6224338;28;20037;-72
2022/09/06 10:22:59;;;;;;;0.70;0.30;;;22.00;59.80;;;;;;6218562;28;20022;-72
2022/09/06 10:26:17;;;;;;;0.60;0.50;;;22.00;59.80;;;;;;6218470;28;20528;-72
2022/09/06 10:29:38;;;;;;;0.52;0.40;;;22.00;59.80;;;;;;6194013;28;20397;-72
2022/09/06 10:32:48;;;;;;;0.60;0.50;;;22.00;59.80;;;;;;6204342;28;20091;-72
2022/09/06 10:35:48;;;;;;;0.60;0.40;;;22.00;59.80;;;;;;6218435;28;20025;-72
2022/09/06 10:38:55;;;;;;;0.40;0.40;;;22.00;59.80;;;;;;6217890;28;20033;-72
2022/09/06 10:42:01;;;;;;;0.45;0.45;;;22.00;59.80;;;;;;6218019;28;20048;-72
2022/09/06 10:45:09;;;;;;;0.68;0.50;;;22.00;59.80;;;;;;6216459;28;20117;-72
2022/09/06 10:48:36;;;;;;;0.50;0.40;;;22.00;59.80;;;;;;6217991;28;20022;-72
2022/09/06 10:51:45;;;;;;;1.50;0.60;;;22.00;59.80;;;;;;6218079;28;20037;-72
2022/09/06 10:54:46;;;;;;;0.50;0.40;;;22.00;59.80;;;;;;6217460;28;20063;-72
2022/09/06 10:57:53;;;;;;;0.93;0.50;;;22.00;59.80;;;;;;6217455;28;20030;-72
2022/09/06 11:00:54;;;;;;;0.30;0.30;;;22.00;59.80;;;;;;6220237;28;20472;-72
2022/09/06 11:03:58;;;;;;;0.40;0.40;;;22.00;59.80;;;;;;6221863;28;20058;-72
2022/09/06 11:07:29;;;;;;;0.70;0.65;;;22.00;59.80;;;;;;6230250;28;20033;-72
2022/09/06 11:10:33;;;;;;;0.22;0.22;;;22.00;59.80;;;;;;6224900;28;20174;-72
2022/09/06 11:13:33;;;;;;;1.27;0.67;;;22.00;59.80;;;;;;6227828;28;20071;-71
2022/09/06 11:16:57;;;;;;;0.47;0.40;;;22.00;59.80;;;;;;6222147;28;20030;-72
2022/09/06 11:20:08;;;;;;;0.68;0.50;;;22.00;59.80;;;;;;6222225;28;20018;-72
2022/09/06 11:23:39;;;;;;;0.50;0.45;;;22.00;59.80;;;;;;6221435;28;20411;-72
2022/09/06 11:26:58;;;;;;;0.50;0.50;;;22.00;59.80;;;;;;6221769;28;20480;-72
2022/09/06 11:30:01;;;;;;;0.40;0.40;;;22.00;59.80;;;;;;6221685;28;20044;-72
2022/09/06 11:33:29;;;;;;;0.47;0.43;;;22.00;59.80;;;;;;6221345;28;20029;-72
2022/09/06 11:36:54;;;;;;;0.40;0.40;;;22.00;59.80;;;;;;6221571;28;20391;-72
2022/09/06 11:40:24;;;;;;;0.40;0.40;;;22.00;59.80;;;;;;6231333;28;20034;-72
2022/09/06 11:43:43;;;;;;;0.50;0.50;;;22.00;59.80;;;;;;6222611;28;20529;-72
2022/09/06 11:46:43;;;;;;;1.25;0.40;;;22.00;59.80;;;;;;6197302;28;20029;-72
2022/09/06 11:49:44;;;;;;;0.57;0.50;;;22.00;59.80;;;;;;6214907;28;20140;-72
2022/09/06 11:52:58;;;;;;;0.50;0.50;;;22.00;59.80;;;;;;6221278;28;20026;-72
2022/09/06 11:55:58;;;;;;;0.35;0.35;;;22.00;59.80;;;;;;6221249;28;20038;-72
2022/09/06 11:59:18;;;;;;;0.60;0.40;;;22.00;59.80;;;;;;6221153;28;20128;-71
2022/09/06 12:02:30;;;;;;;0.40;0.40;;;22.00;59.80;;;;;;6221532;28;20037;-72
2022/09/06 12:05:31;;;;;;;0.40;0.40;;;22.00;59.90;;;;;;6220784;28;20030;-72
2022/09/06 12:08:33;;;;;;;0.47;0.40;;;22.00;59.80;;;;;;6220792;28;20128;-72
2022/09/06 12:11:44;;;;;;;0.30;0.30;;;22.00;59.80;;;;;;6220013;28;20567;-72
2022/09/06 12:14:45;;;;;;;0.47;0.47;;;22.00;59.80;;;;;;6220200;28;20488;-72
2022/09/06 12:17:46;;;;;;;0.80;0.50;;;22.00;59.80;;;;;;6221001;28;20025;-73
2022/09/06 12:20:47;;;;;;;0.30;0.30;;;22.00;59.80;;;;;;6220059;28;20101;-72
2022/09/06 12:23:47;;;;;;;0.65;0.60;;;22.00;59.80;;;;;;6220409;28;20018;-72
2022/09/06 12:27:08;;;;;;;0.65;0.50;;;22.00;59.80;;;;;;6220271;28;20028;-74
2022/09/06 12:30:11;;;;;;;1.75;0.50;;;22.00;59.80;;;;;;6220206;28;20032;-72
2022/09/06 12:33:21;;;;;;;0.73;0.40;;;22.00;59.80;;;;;;6220583;28;20038;-72
2022/09/06 12:36:29;;;;;;;0.47;0.40;;;22.00;59.80;;;;;;6196063;28;20041;-72
2022/09/06 12:39:30;;;;;;;0.40;0.40;;;22.00;59.80;;;;;;6205210;28;20021;-72
2022/09/06 12:42:34;;;;;;;0.57;0.50;;;22.00;59.80;;;;;;6218919;28;20519;-72
2022/09/06 12:45:35;;;;;;;0.50;0.50;;;22.00;59.80;;;;;;6219749;28;20044;-73
2022/09/06 12:48:40;;;;;;;0.82;0.52;;;22.00;59.80;;;;;;6220120;28;20030;-73
2022/09/06 12:51:40;;;;;;;;;;;22.00;60.70;;;;;;6220690;28;20042;-72
2022/09/06 12:54:48;;;;;;;0.82;0.50;;;22.00;59.80;;;;;;6219669;28;20711;-72
2022/09/06 12:57:55;;;;;;;0.73;0.57;;;22.00;59.80;;;;;;6219949;28;20065;-72
2022/09/06 13:01:06;;;;;;;0.50;0.50;;;22.00;59.80;;;;;;6219820;28;20033;-72
2022/09/06 13:04:23;;;;;;;0.70;0.43;;;22.00;59.80;;;;;;6294309;28;20036;-72
2022/09/06 13:07:25;;;;;;;1.00;0.60;;;22.00;59.80;;;;;;6292969;28;20028;-73
2022/09/06 13:10:28;;;;;;;0.40;0.40;;;22.00;59.80;;;;;;6294731;28;20032;-74
2022/09/06 13:13:29;;;;;;;0.45;0.40;;;22.00;59.80;;;;;;6294219;28;20044;-73
2022/09/06 13:16:41;;;;;;;0.98;0.40;;;22.00;59.80;;;;;;6294601;28;20059;-72
2022/09/06 13:19:42;;;;;;;0.40;0.40;;;22.00;59.80;;;;;;6277624;28;20032;-72
2022/09/06 13:22:46;;;;;;;0.57;0.50;;;22.00;59.80;;;;;;6293675;28;20031;-72
2022/09/06 13:25:48;;;;;;;0.35;0.32;;;22.00;59.80;;;;;;6290635;28;20024;-72
2022/09/06 13:28:49;;;;;;;0.60;0.60;;;22.00;59.80;;;;;;6294569;28;20055;-72
2022/09/06 13:31:52;;;;;;;1.20;0.60;;;22.00;59.80;;;;;;6293916;28;20044;-72
2022/09/06 13:34:55;;;;;;;0.40;0.40;;;22.00;59.80;;;;;;6254826;28;20430;-72
2022/09/06 13:38:19;;;;;;;0.32;0.30;;;22.00;59.80;;;;;;6219168;28;20022;-72
2022/09/06 13:41:26;;;;;;;0.68;0.50;;;22.00;59.80;;;;;;6217802;28;20022;-72
2022/09/06 13:44:29;;;;;;;0.60;0.43;;;22.00;59.80;;;;;;6218565;28;20523;-72
2022/09/06 13:47:30;;;;;;;0.73;0.50;;;22.00;59.90;;;;;;6219301;28;20062;-72
2022/09/06 13:50:32;;;;;;;0.75;0.50;;;22.00;59.80;;;;;;6218816;28;20040;-72
2022/09/06 13:53:34;;;;;;;0.45;0.45;;;22.00;59.80;;;;;;6318287;28;20040;-72
2022/09/06 13:56:35;;;;;;;0.77;0.50;;;22.00;59.80;;;;;;6318452;28;20518;-72
2022/09/06 13:59:35;;;;;;;0.40;0.40;;;22.00;59.80;;;;;;6318570;28;20120;-72
2022/09/06 14:02:38;;;;;;;0.82;0.60;;;22.00;59.80;;;;;;6318572;28;20032;-72
2022/09/06 14:05:38;;;;;;;0.65;0.50;;;22.00;59.80;;;;;;6318421;28;20020;-72
2022/09/06 14:08:39;;;;;;;0.43;0.43;;;22.00;59.80;;;;;;6318658;28;20194;-73
2022/09/06 14:11:41;;;;;;;0.40;0.40;;;22.00;59.80;;;;;;6318160;28;20158;-72
2022/09/06 14:14:43;;;;;;;0.40;0.40;;;22.00;59.90;;;;;;6317773;28;20051;-73
2022/09/06 14:17:45;;;;;;;0.40;0.40;;;22.00;59.80;;;;;;6318407;28;20036;-73
2022/09/06 14:20:54;;;;;;;0.43;0.35;;;22.00;59.80;;;;;;6317855;28;20032;-72
2022/09/06 14:23:55;;;;;;;0.60;0.40;;;22.00;59.80;;;;;;6258830;28;20113;-72
2022/09/06 14:26:55;;;;;;;0.30;0.30;;;22.00;59.80;;;;;;6218319;28;20034;-72
2022/09/06 14:29:56;;;;;;;0.43;0.43;;;22.00;59.80;;;;;;6218478;28;20050;-73
2022/09/06 14:32:57;;;;;;;0.88;0.50;;;22.00;59.80;;;;;;6217986;28;20109;-72
2022/09/06 14:35:57;;;;;;;0.60;0.60;;;22.00;59.80;;;;;;6217657;28;20030;-72
2022/09/06 14:38:59;;;;;;;0.52;0.50;;;22.00;59.80;;;;;;6217916;28;20026;-72
2022/09/06 14:42:00;;;;;;;0.55;0.52;;;22.00;59.80;;;;;;6217670;28;20417;-72
2022/09/06 14:45:00;;;;;;;0.60;0.60;;;22.00;59.80;;;;;;6217329;28;20086;-72
2022/09/06 14:48:02;;;;;;;0.55;0.50;;;22.00;59.80;;;;;;6218199;28;20026;-73
2022/09/06 14:51:08;;;;;;;0.45;0.45;;;22.00;59.80;;;;;;6217229;28;20022;-72
2022/09/06 14:54:12;;;;;;;0.50;0.47;;;22.00;59.80;;;;;;6217739;28;20032;-72
2022/09/06 14:57:13;;;;;;;0.40;0.40;;;22.00;59.80;;;;;;6217609;28;20146;-72
2022/09/06 15:00:14;;;;;;;0.40;0.40;;;22.00;59.90;;;;;;6217614;28;20034;-72
2022/09/06 15:03:14;;;;;;;0.40;0.40;;;22.00;59.90;;;;;;6217800;28;20161;-72
2022/09/06 15:06:16;;;;;;;0.50;0.40;;;22.00;59.90;;;;;;6217312;28;20018;-74
2022/09/06 15:09:17;;;;;;;0.75;0.60;;;22.00;59.90;;;;;;6218090;28;20110;-72
2022/09/06 15:12:18;;;;;;;0.65;0.47;;;22.00;59.80;;;;;;6217629;28;20061;-73
2022/09/06 15:15:19;;;;;;;1.40;0.50;;;22.00;59.80;;;;;;6217927;28;20066;-72
2022/09/06 15:18:20;;;;;;;0.50;0.47;;;22.00;59.80;;;;;;6215863;28;20037;-72
2022/09/06 15:21:21;;;;;;;0.82;0.50;;;22.00;59.80;;;;;;6217526;28;20032;-72
2022/09/06 15:24:23;;;;;;;0.60;0.50;;;22.00;59.90;;;;;;6217207;28;20057;-72
2022/09/06 15:27:23;;;;;;;0.60;0.55;;;22.00;59.90;;;;;;6217344;28;20026;-72
2022/09/06 15:30:24;;;;;;;0.35;0.35;;;22.00;59.90;;;;;;6217267;28;20040;-72
2022/09/06 15:33:29;;;;;;;0.60;0.50;;;22.00;59.90;;;;;;6217524;28;20380;-72
2022/09/06 15:36:30;;;;;;;;;;;21.90;59.80;;;;;;6223735;28;20030;-72
2022/09/06 15:39:31;;;;;;;0.50;0.50;;;22.00;59.80;;;;;;6211450;28;19905;-72
2022/09/06 15:42:32;;;;;;;2.08;0.65;;;22.00;59.90;;;;;;6216698;28;20099;-72
2022/09/06 15:45:46;;;;;;;0.60;0.40;;;21.90;59.80;;;;;;6216874;28;20521;-72
2022/09/06 15:48:49;;;;;;;0.40;0.40;;;22.00;59.90;;;;;;6211544;28;20079;-72
2022/09/06 15:51:50;;;;;;;0.82;0.40;;;22.00;59.90;;;;;;6219957;28;20038;-72
2022/09/06 15:58:10;;;;;;;0.57;0.43;;;22.00;59.90;;;;;;6220755;28;20022;-73
2022/09/06 16:01:17;;;;;;;0.50;0.50;;;22.00;59.90;;;;;;6221246;28;20041;-72
2022/09/06 16:04:18;;;;;;;0.52;0.52;;;22.00;59.90;;;;;;6220540;28;20026;-72
2022/09/06 16:07:18;;;;;;;0.43;0.43;;;22.00;59.90;;;;;;6220923;28;20079;-72